createdAt,value
2023-05-20T00:01:46.364Z,12.31
2023-05-20T00:06:48.138Z,12.30
2023-05-20T00:11:50.036Z,12.30
2023-05-20T00:16:52.023Z,12.32
2023-05-20T00:21:53.838Z,12.35
2023-05-20T00:26:55.763Z,12.35
2023-05-20T00:31:57.624Z,12.32
2023-05-20T00:36:59.763Z,12.31
2023-05-20T00:42:03.515Z,12.32
2023-05-20T00:47:05.535Z,12.28
2023-05-20T00:52:08.381Z,12.35
2023-05-20T00:57:10.747Z,12.38
2023-05-20T01:02:12.853Z,12.38
2023-05-20T01:07:19.419Z,12.37
2023-05-20T01:12:26.427Z,12.39
2023-05-20T01:17:32.987Z,12.35
2023-05-20T01:22:58.110Z,12.36
2023-05-20T01:27:59.912Z,12.31
2023-05-20T01:33:07.276Z,12.38
2023-05-20T01:38:09.557Z,12.42
2023-05-20T01:43:12.418Z,12.43
2023-05-20T01:48:16.918Z,12.43
2023-05-20T01:53:18.803Z,12.41
2023-05-20T01:58:20.759Z,12.40
2023-05-20T02:03:22.805Z,12.40
2023-05-20T02:08:24.734Z,12.47
2023-05-20T02:13:26.594Z,12.50
2023-05-20T02:18:28.433Z,12.47
2023-05-20T02:23:33.180Z,12.41
2023-05-20T02:28:35.039Z,12.34
2023-05-20T02:33:36.917Z,12.34
2023-05-20T02:38:39.024Z,12.35
2023-05-20T02:43:40.838Z,12.43
2023-05-20T02:48:42.595Z,12.51
2023-05-20T02:53:44.432Z,12.51
2023-05-20T02:58:46.707Z,12.51
2023-05-20T03:03:49.203Z,12.50
2023-05-20T03:08:51.397Z,12.48
2023-05-20T03:13:53.277Z,12.40
2023-05-20T03:18:55.194Z,12.28
2023-05-20T03:23:57.101Z,12.27
2023-05-20T03:28:59.355Z,12.31
2023-05-20T03:34:02.027Z,12.31
2023-05-20T03:39:04.630Z,12.34
2023-05-20T03:44:07.299Z,12.29
2023-05-20T03:49:09.336Z,12.24
2023-05-20T03:54:12.041Z,12.14
2023-05-20T03:59:15.098Z,12.08
2023-05-20T04:07:13.612Z,12.02
2023-05-20T04:12:16.044Z,12.08
2023-05-20T04:17:17.818Z,12.15
2023-05-20T04:22:19.879Z,12.23
2023-05-20T04:27:21.866Z,12.39
2023-05-20T04:32:23.814Z,12.51
2023-05-20T04:37:26.333Z,12.56
2023-05-20T04:42:29.892Z,12.58
2023-05-20T04:47:38.617Z,12.68
2023-05-20T04:52:46.207Z,12.78
2023-05-20T04:57:48.191Z,12.91
2023-05-20T05:02:50.211Z,13.10
2023-05-20T05:07:53.261Z,13.29
2023-05-20T05:12:55.118Z,13.37
2023-05-20T05:17:57.775Z,13.52
2023-05-20T05:22:59.902Z,13.72
2023-05-20T05:28:01.728Z,13.94
2023-05-20T05:33:03.642Z,14.09
2023-05-20T05:38:05.634Z,14.14
2023-05-20T05:43:07.817Z,14.18
2023-05-20T05:48:10.459Z,14.17
2023-05-20T05:53:13.279Z,14.25
2023-05-20T05:58:16.521Z,14.38
2023-05-20T06:03:18.903Z,14.56
2023-05-20T06:08:20.918Z,14.74
2023-05-20T06:13:23.439Z,14.85
2023-05-20T06:18:25.433Z,14.98
2023-05-20T06:23:31.271Z,15.12
2023-05-20T06:28:35.918Z,15.34
2023-05-20T06:33:37.846Z,15.49
2023-05-20T06:38:45.737Z,15.62
2023-05-20T06:43:50.573Z,15.60
2023-05-20T06:49:13.302Z,15.55
2023-05-20T06:54:15.969Z,15.51
2023-05-20T06:59:18.246Z,15.58
2023-05-20T07:04:20.554Z,15.68
2023-05-20T07:09:23.054Z,15.86
2023-05-20T07:14:25.777Z,16.00
2023-05-20T07:19:27.967Z,16.17
2023-05-20T07:24:30.171Z,16.32
2023-05-20T07:29:32.406Z,16.42
2023-05-20T07:34:34.956Z,16.51
2023-05-20T07:39:37.028Z,16.81
2023-05-20T07:44:42.048Z,17.13
2023-05-20T07:49:44.559Z,17.47
2023-05-20T07:54:46.504Z,17.57
2023-05-20T07:59:51.364Z,17.74
2023-05-20T08:04:54.597Z,17.85
2023-05-20T08:09:57.100Z,18.03
2023-05-20T08:14:59.058Z,18.27
2023-05-20T08:20:01.841Z,18.63
2023-05-20T08:25:08.099Z,18.84
2023-05-20T08:30:13.663Z,19.27
2023-05-20T08:35:16.586Z,19.65
2023-05-20T08:40:20.851Z,20.24
2023-05-20T08:45:27.860Z,20.50
2023-05-20T08:50:33.378Z,20.52
2023-05-20T08:55:43.050Z,21.13
2023-05-20T09:00:45.549Z,21.72
2023-05-20T09:05:48.062Z,22.18
2023-05-20T09:10:52.659Z,21.94
2023-05-20T09:15:54.495Z,22.05
2023-05-20T09:20:56.757Z,21.83
2023-05-20T09:26:02.414Z,22.83
2023-05-20T09:31:06.688Z,24.36
2023-05-20T09:36:09.424Z,25.17
2023-05-20T09:41:15.466Z,25.38
2023-05-20T09:46:17.523Z,25.69
2023-05-20T09:51:22.786Z,25.99
2023-05-20T09:56:26.384Z,24.26
2023-05-20T10:01:28.234Z,22.68
2023-05-20T10:06:43.416Z,22.59
2023-05-20T10:11:59.570Z,22.95
2023-05-20T10:17:20.330Z,23.26
2023-05-20T10:22:29.887Z,23.39
2023-05-20T10:27:46.025Z,24.23
2023-05-20T10:32:58.167Z,24.56
2023-05-20T10:38:12.264Z,24.14
2023-05-20T10:43:16.285Z,23.89
2023-05-20T10:48:24.411Z,23.52
2023-05-20T10:53:34.452Z,23.64
2023-05-20T10:58:37.662Z,23.36
2023-05-20T11:03:41.149Z,22.61
2023-05-20T11:08:43.235Z,22.62
2023-05-20T11:13:50.716Z,23.29
2023-05-20T11:18:52.497Z,23.64
2023-05-20T11:23:54.909Z,23.70
2023-05-20T11:28:58.276Z,23.67
2023-05-20T11:34:01.728Z,23.54
2023-05-20T11:39:03.848Z,23.48
2023-05-20T11:44:10.264Z,23.20
2023-05-20T11:49:14.006Z,23.21
2023-05-20T11:54:15.979Z,23.26
2023-05-20T11:59:17.745Z,23.53
2023-05-20T12:04:19.680Z,23.60
2023-05-20T12:09:22.576Z,23.47
2023-05-20T12:14:24.516Z,23.43
2023-05-20T12:19:26.348Z,23.74
2023-05-20T12:24:28.106Z,24.19
2023-05-20T12:29:30.097Z,24.55
2023-05-20T12:34:33.281Z,24.87
2023-05-20T12:39:42.485Z,25.11
2023-05-20T12:44:44.283Z,24.53
2023-05-20T12:49:46.038Z,24.09
2023-05-20T12:54:47.923Z,23.76
2023-05-20T12:59:50.198Z,23.47
2023-05-20T13:04:52.015Z,23.65
2023-05-20T13:09:53.830Z,24.05
2023-05-20T13:14:55.584Z,24.39
2023-05-20T13:19:57.346Z,24.88
2023-05-20T13:24:59.354Z,25.51
2023-05-20T13:30:02.027Z,25.72
2023-05-20T13:35:07.152Z,25.89
2023-05-20T13:40:09.555Z,25.89
2023-05-20T13:45:11.759Z,26.03
2023-05-20T13:50:13.556Z,26.22
2023-05-20T13:55:16.303Z,26.29
2023-05-20T14:00:18.780Z,26.26
2023-05-20T14:05:21.470Z,26.74
2023-05-20T14:10:23.181Z,26.88
2023-05-20T14:15:24.899Z,26.54
2023-05-20T14:20:26.952Z,26.19
2023-05-20T14:25:29.136Z,26.39
2023-05-20T14:30:31.273Z,26.35
2023-05-20T14:35:33.101Z,26.19
2023-05-20T14:40:35.090Z,26.21
2023-05-20T14:45:37.046Z,26.36
2023-05-20T14:50:38.808Z,26.54
2023-05-20T14:55:40.863Z,26.79
2023-05-20T15:00:43.035Z,27.05
2023-05-20T15:05:44.949Z,26.94
2023-05-20T15:10:46.953Z,26.63
2023-05-20T15:15:48.757Z,26.75
2023-05-20T15:20:50.664Z,26.90
2023-05-20T15:25:52.649Z,26.74
2023-05-20T15:30:56.213Z,26.75
2023-05-20T15:35:58.046Z,26.91
2023-05-20T15:40:59.843Z,27.23
2023-05-20T15:46:01.610Z,27.36
2023-05-20T15:51:04.333Z,27.31
2023-05-20T15:56:07.112Z,27.40
2023-05-20T16:01:08.870Z,27.52
2023-05-20T16:06:11.848Z,27.47
2023-05-20T16:11:13.753Z,27.62
2023-05-20T16:16:16.802Z,27.49
2023-05-20T16:21:19.666Z,27.09
2023-05-20T16:26:21.469Z,26.56
2023-05-20T16:31:23.813Z,25.95
2023-05-20T16:36:26.964Z,25.21
2023-05-20T16:41:28.736Z,24.60
2023-05-20T16:46:30.574Z,24.11
2023-05-20T16:51:32.352Z,23.64
2023-05-20T16:56:35.503Z,23.26
2023-05-20T17:01:37.357Z,22.94
2023-05-20T17:06:39.928Z,22.60
2023-05-20T17:11:42.134Z,22.27
2023-05-20T17:16:43.855Z,22.01
2023-05-20T17:21:45.893Z,21.87
2023-05-20T17:26:47.629Z,21.93
2023-05-20T17:31:49.628Z,21.88
2023-05-20T17:36:51.616Z,21.87
2023-05-20T17:41:53.411Z,22.24
2023-05-20T17:46:55.126Z,22.57
2023-05-20T17:51:56.922Z,22.74
2023-05-20T17:56:58.641Z,22.79
2023-05-20T18:02:01.375Z,22.60
2023-05-20T18:07:09.789Z,22.25
2023-05-20T18:12:11.538Z,21.85
2023-05-20T18:17:13.298Z,21.40
2023-05-20T18:22:15.092Z,21.01
2023-05-20T18:27:17.082Z,20.70
2023-05-20T18:32:18.953Z,20.43
2023-05-20T18:37:21.009Z,20.21
2023-05-20T18:42:22.733Z,20.02
2023-05-20T18:47:24.583Z,19.83
2023-05-20T18:52:26.451Z,19.69
2023-05-20T18:57:28.389Z,19.55
2023-05-20T19:02:30.180Z,19.42
2023-05-20T19:07:32.148Z,19.30
2023-05-20T19:12:33.928Z,19.21
2023-05-20T19:17:35.837Z,19.12
2023-05-20T19:22:37.750Z,19.05
2023-05-20T19:27:39.542Z,19.06
2023-05-20T19:32:41.624Z,19.01
2023-05-20T19:37:43.580Z,18.92
2023-05-20T19:42:45.332Z,18.74
2023-05-20T19:47:47.173Z,18.54
2023-05-20T19:52:49.026Z,18.35
2023-05-20T19:57:53.549Z,18.23
2023-05-20T20:02:56.974Z,18.12
2023-05-20T20:07:59.265Z,18.09
2023-05-20T20:13:01.298Z,18.03
2023-05-20T20:18:03.409Z,17.97
2023-05-20T20:23:08.030Z,17.95
2023-05-20T20:28:11.264Z,17.89
2023-05-20T20:33:14.664Z,17.78
2023-05-20T20:38:18.131Z,17.64
2023-05-20T20:43:21.228Z,17.56
2023-05-20T20:48:27.294Z,17.54
2023-05-20T20:53:29.222Z,17.45
2023-05-20T20:58:35.059Z,17.32
2023-05-20T21:03:40.123Z,17.26
2023-05-20T21:08:42.724Z,17.21
2023-05-20T21:13:47.696Z,17.11
2023-05-20T21:18:49.577Z,17.03
2023-05-20T21:23:52.822Z,16.94
2023-05-20T21:28:54.616Z,16.87
2023-05-20T21:33:56.394Z,16.77
2023-05-20T21:38:59.191Z,16.68
2023-05-20T21:44:01.528Z,16.65
2023-05-20T21:49:04.738Z,16.66
2023-05-20T21:54:06.612Z,16.59
2023-05-20T21:59:08.288Z,16.49
2023-05-20T22:04:11.871Z,16.37
2023-05-20T22:09:13.822Z,16.33
2023-05-20T22:14:16.411Z,16.36
2023-05-20T22:19:18.266Z,16.39
2023-05-20T22:24:20.056Z,16.40
2023-05-20T22:29:22.513Z,16.35
2023-05-20T22:34:24.250Z,16.28
2023-05-20T22:39:25.991Z,16.19
2023-05-20T22:44:27.751Z,16.11
2023-05-20T22:49:29.462Z,16.14
2023-05-20T22:54:31.228Z,16.17
2023-05-20T22:59:32.949Z,16.23
2023-05-20T23:04:34.681Z,16.28
2023-05-20T23:09:37.197Z,16.34
2023-05-20T23:14:45.154Z,16.38
2023-05-20T23:19:47.515Z,16.43
2023-05-20T23:24:49.311Z,16.45
2023-05-20T23:29:51.210Z,16.47
2023-05-20T23:34:56.886Z,16.45
2023-05-20T23:39:59.402Z,16.41
2023-05-20T23:45:01.404Z,16.37
2023-05-20T23:50:23.131Z,16.34
2023-05-20T23:55:24.872Z,16.26
